sensor_id;sensor_type;location;lat;lon;timestamp;temperature;humidity
8994;DHT22;4532;50.886;4.700;2023-03-19T00:01:39;14.30;99.90
8994;DHT22;4532;50.886;4.700;2023-03-19T00:04:14;14.30;99.90
8994;DHT22;4532;50.886;4.700;2023-03-19T00:06:43;14.30;99.90
8994;DHT22;4532;50.886;4.700;2023-03-19T00:09:14;14.30;99.90
8994;DHT22;4532;50.886;4.700;2023-03-19T00:11:44;14.30;99.90
8994;DHT22;4532;50.886;4.700;2023-03-19T00:14:15;14.20;99.90
8994;DHT22;4532;50.886;4.700;2023-03-19T00:16:43;14.20;99.90
8994;DHT22;4532;50.886;4.700;2023-03-19T00:19:13;14.30;99.90
8994;DHT22;4532;50.886;4.700;2023-03-19T00:21:42;14.30;99.90
8994;DHT22;4532;50.886;4.700;2023-03-19T00:24:12;14.30;99.90
8994;DHT22;4532;50.886;4.700;2023-03-19T00:26:42;14.30;99.90
8994;DHT22;4532;50.886;4.700;2023-03-19T00:29:12;14.30;99.90
8994;DHT22;4532;50.886;4.700;2023-03-19T00:31:49;14.30;99.90
8994;DHT22;4532;50.886;4.700;2023-03-19T00:34:23;14.30;99.90
8994;DHT22;4532;50.886;4.700;2023-03-19T00:36:55;14.30;99.90
8994;DHT22;4532;50.886;4.700;2023-03-19T00:39:27;14.30;99.90
8994;DHT22;4532;50.886;4.700;2023-03-19T00:41:57;14.30;99.90
8994;DHT22;4532;50.886;4.700;2023-03-19T00:44:26;14.30;99.90
8994;DHT22;4532;50.886;4.700;2023-03-19T00:46:56;14.30;99.90
8994;DHT22;4532;50.886;4.700;2023-03-19T00:49:23;14.30;99.90
8994;DHT22;4532;50.886;4.700;2023-03-19T00:51:50;14.20;99.90
8994;DHT22;4532;50.886;4.700;2023-03-19T00:54:17;14.20;99.90
8994;DHT22;4532;50.886;4.700;2023-03-19T00:56:44;14.20;99.90
8994;DHT22;4532;50.886;4.700;2023-03-19T00:59:14;14.20;99.90
8994;DHT22;4532;50.886;4.700;2023-03-19T01:01:43;14.20;99.90
8994;DHT22;4532;50.886;4.700;2023-03-19T01:04:10;14.20;99.90
8994;DHT22;4532;50.886;4.700;2023-03-19T01:06:43;14.20;99.90
8994;DHT22;4532;50.886;4.700;2023-03-19T01:09:13;14.20;99.90
8994;DHT22;4532;50.886;4.700;2023-03-19T01:11:43;14.20;99.90
8994;DHT22;4532;50.886;4.700;2023-03-19T01:14:15;14.20;99.90
8994;DHT22;4532;50.886;4.700;2023-03-19T01:16:45;14.20;99.90
8994;DHT22;4532;50.886;4.700;2023-03-19T01:19:17;14.20;99.90
8994;DHT22;4532;50.886;4.700;2023-03-19T01:21:45;14.20;99.90
8994;DHT22;4532;50.886;4.700;2023-03-19T01:24:13;14.20;99.90
8994;DHT22;4532;50.886;4.700;2023-03-19T01:26:42;14.20;99.90
8994;DHT22;4532;50.886;4.700;2023-03-19T01:29:12;14.20;99.90
8994;DHT22;4532;50.886;4.700;2023-03-19T01:31:41;14.20;99.90
8994;DHT22;4532;50.886;4.700;2023-03-19T01:34:08;14.20;99.90
8994;DHT22;4532;50.886;4.700;2023-03-19T01:36:36;14.20;99.90
8994;DHT22;4532;50.886;4.700;2023-03-19T01:39:08;14.20;99.90
8994;DHT22;4532;50.886;4.700;2023-03-19T01:41:36;14.20;99.90
8994;DHT22;4532;50.886;4.700;2023-03-19T01:44:31;14.20;99.90
8994;DHT22;4532;50.886;4.700;2023-03-19T01:47:14;14.20;99.90
8994;DHT22;4532;50.886;4.700;2023-03-19T01:49:52;14.20;99.90
8994;DHT22;4532;50.886;4.700;2023-03-19T01:52:24;14.20;99.90
8994;DHT22;4532;50.886;4.700;2023-03-19T01:54:57;14.20;99.90
8994;DHT22;4532;50.886;4.700;2023-03-19T01:57:25;14.20;99.90
8994;DHT22;4532;50.886;4.700;2023-03-19T02:00:00;14.20;99.90
8994;DHT22;4532;50.886;4.700;2023-03-19T02:02:29;14.20;99.90
8994;DHT22;4532;50.886;4.700;2023-03-19T02:05:08;14.20;99.90
8994;DHT22;4532;50.886;4.700;2023-03-19T02:07:40;14.20;99.90
8994;DHT22;4532;50.886;4.700;2023-03-19T02:10:14;14.20;99.90
8994;DHT22;4532;50.886;4.700;2023-03-19T02:12:45;14.20;99.90
8994;DHT22;4532;50.886;4.700;2023-03-19T02:15:15;14.20;99.90
8994;DHT22;4532;50.886;4.700;2023-03-19T02:17:47;14.20;99.90
8994;DHT22;4532;50.886;4.700;2023-03-19T02:20:40;14.20;99.90
8994;DHT22;4532;50.886;4.700;2023-03-19T02:26:15;14.20;99.90
8994;DHT22;4532;50.886;4.700;2023-03-19T02:28:51;14.20;99.90
8994;DHT22;4532;50.886;4.700;2023-03-19T02:31:22;14.20;99.90
8994;DHT22;4532;50.886;4.700;2023-03-19T02:36:53;14.20;99.90
8994;DHT22;4532;50.886;4.700;2023-03-19T02:39:29;14.10;99.90
8994;DHT22;4532;50.886;4.700;2023-03-19T02:41:58;14.20;99.90
8994;DHT22;4532;50.886;4.700;2023-03-19T02:44:29;14.10;99.90
8994;DHT22;4532;50.886;4.700;2023-03-19T02:46:58;14.10;99.90
8994;DHT22;4532;50.886;4.700;2023-03-19T02:49:31;14.10;99.90
8994;DHT22;4532;50.886;4.700;2023-03-19T02:52:00;14.20;99.90
8994;DHT22;4532;50.886;4.700;2023-03-19T02:54:32;14.20;99.90
8994;DHT22;4532;50.886;4.700;2023-03-19T02:57:01;14.20;99.90
8994;DHT22;4532;50.886;4.700;2023-03-19T02:59:34;14.20;99.90
8994;DHT22;4532;50.886;4.700;2023-03-19T03:02:04;14.20;99.90
8994;DHT22;4532;50.886;4.700;2023-03-19T03:04:34;14.20;99.90
8994;DHT22;4532;50.886;4.700;2023-03-19T03:07:06;14.20;99.90
8994;DHT22;4532;50.886;4.700;2023-03-19T03:09:34;14.20;99.90
8994;DHT22;4532;50.886;4.700;2023-03-19T03:12:01;14.20;99.90
8994;DHT22;4532;50.886;4.700;2023-03-19T03:14:31;14.20;99.90
8994;DHT22;4532;50.886;4.700;2023-03-19T03:16:58;14.20;99.90
8994;DHT22;4532;50.886;4.700;2023-03-19T03:19:26;14.30;99.90
8994;DHT22;4532;50.886;4.700;2023-03-19T03:21:55;14.20;99.90
8994;DHT22;4532;50.886;4.700;2023-03-19T03:24:22;14.30;99.90
8994;DHT22;4532;50.886;4.700;2023-03-19T03:26:52;14.20;99.90
8994;DHT22;4532;50.886;4.700;2023-03-19T03:29:22;14.20;99.90
8994;DHT22;4532;50.886;4.700;2023-03-19T03:31:51;14.20;99.90
8994;DHT22;4532;50.886;4.700;2023-03-19T03:34:21;14.20;99.90
8994;DHT22;4532;50.886;4.700;2023-03-19T03:36:51;14.30;99.90
8994;DHT22;4532;50.886;4.700;2023-03-19T03:39:19;14.30;99.90
8994;DHT22;4532;50.886;4.700;2023-03-19T03:41:48;14.30;99.90
8994;DHT22;4532;50.886;4.700;2023-03-19T03:44:15;14.30;99.90
8994;DHT22;4532;50.886;4.700;2023-03-19T03:46:45;14.30;99.90
8994;DHT22;4532;50.886;4.700;2023-03-19T03:49:15;14.30;99.90
8994;DHT22;4532;50.886;4.700;2023-03-19T03:51:46;14.30;99.90
8994;DHT22;4532;50.886;4.700;2023-03-19T03:54:14;14.30;99.90
8994;DHT22;4532;50.886;4.700;2023-03-19T03:56:46;14.30;99.90
8994;DHT22;4532;50.886;4.700;2023-03-19T03:59:16;14.20;99.90
8994;DHT22;4532;50.886;4.700;2023-03-19T04:01:45;14.30;99.90
8994;DHT22;4532;50.886;4.700;2023-03-19T04:04:15;14.30;99.90
8994;DHT22;4532;50.886;4.700;2023-03-19T04:06:42;14.30;99.90
8994;DHT22;4532;50.886;4.700;2023-03-19T04:09:09;14.30;99.90
8994;DHT22;4532;50.886;4.700;2023-03-19T04:11:38;14.30;99.90
8994;DHT22;4532;50.886;4.700;2023-03-19T04:14:05;14.30;99.90
8994;DHT22;4532;50.886;4.700;2023-03-19T04:16:36;14.30;99.90
8994;DHT22;4532;50.886;4.700;2023-03-19T04:19:04;14.30;99.90
8994;DHT22;4532;50.886;4.700;2023-03-19T04:21:33;14.30;99.90
8994;DHT22;4532;50.886;4.700;2023-03-19T04:24:00;14.30;99.90
8994;DHT22;4532;50.886;4.700;2023-03-19T04:26:28;14.30;99.90
8994;DHT22;4532;50.886;4.700;2023-03-19T04:28:56;14.30;99.90
8994;DHT22;4532;50.886;4.700;2023-03-19T04:31:26;14.30;99.90
8994;DHT22;4532;50.886;4.700;2023-03-19T04:33:53;14.20;99.90
8994;DHT22;4532;50.886;4.700;2023-03-19T04:36:20;14.30;99.90
8994;DHT22;4532;50.886;4.700;2023-03-19T04:38:52;14.20;99.90
8994;DHT22;4532;50.886;4.700;2023-03-19T04:41:24;14.20;99.90
8994;DHT22;4532;50.886;4.700;2023-03-19T04:43:54;14.20;99.90
8994;DHT22;4532;50.886;4.700;2023-03-19T04:46:26;14.20;99.90
8994;DHT22;4532;50.886;4.700;2023-03-19T04:48:53;14.10;99.90
8994;DHT22;4532;50.886;4.700;2023-03-19T04:51:25;14.10;99.90
8994;DHT22;4532;50.886;4.700;2023-03-19T04:53:55;14.10;99.90
8994;DHT22;4532;50.886;4.700;2023-03-19T04:56:23;14.10;99.90
8994;DHT22;4532;50.886;4.700;2023-03-19T04:58:53;14.00;99.90
8994;DHT22;4532;50.886;4.700;2023-03-19T05:01:24;14.00;99.90
8994;DHT22;4532;50.886;4.700;2023-03-19T05:03:52;13.90;99.90
8994;DHT22;4532;50.886;4.700;2023-03-19T05:06:19;13.90;99.90
8994;DHT22;4532;50.886;4.700;2023-03-19T05:08:51;13.80;99.90
8994;DHT22;4532;50.886;4.700;2023-03-19T05:11:20;13.80;99.90
8994;DHT22;4532;50.886;4.700;2023-03-19T05:13:47;13.80;99.90
8994;DHT22;4532;50.886;4.700;2023-03-19T05:16:15;13.70;99.90
8994;DHT22;4532;50.886;4.700;2023-03-19T05:18:42;13.60;99.90
8994;DHT22;4532;50.886;4.700;2023-03-19T05:21:11;13.60;99.90
8994;DHT22;4532;50.886;4.700;2023-03-19T05:23:41;13.60;99.90
8994;DHT22;4532;50.886;4.700;2023-03-19T05:26:10;13.50;99.90
8994;DHT22;4532;50.886;4.700;2023-03-19T05:28:37;13.40;99.90
8994;DHT22;4532;50.886;4.700;2023-03-19T05:31:05;13.40;99.90
8994;DHT22;4532;50.886;4.700;2023-03-19T05:33:35;13.40;99.90
8994;DHT22;4532;50.886;4.700;2023-03-19T05:36:02;13.30;99.90
8994;DHT22;4532;50.886;4.700;2023-03-19T05:38:32;13.30;99.90
8994;DHT22;4532;50.886;4.700;2023-03-19T05:41:07;13.30;99.90
8994;DHT22;4532;50.886;4.700;2023-03-19T05:43:36;13.30;99.90
8994;DHT22;4532;50.886;4.700;2023-03-19T05:46:04;13.20;99.90
8994;DHT22;4532;50.886;4.700;2023-03-19T05:48:33;13.20;99.90
8994;DHT22;4532;50.886;4.700;2023-03-19T05:51:03;13.20;99.90
8994;DHT22;4532;50.886;4.700;2023-03-19T05:53:30;13.10;99.90
8994;DHT22;4532;50.886;4.700;2023-03-19T05:55:57;13.10;99.90
8994;DHT22;4532;50.886;4.700;2023-03-19T05:58:27;13.00;99.90
8994;DHT22;4532;50.886;4.700;2023-03-19T06:00:57;13.00;99.90
8994;DHT22;4532;50.886;4.700;2023-03-19T06:03:26;12.90;99.90
8994;DHT22;4532;50.886;4.700;2023-03-19T06:05:56;13.00;99.90
8994;DHT22;4532;50.886;4.700;2023-03-19T06:08:23;12.90;99.90
8994;DHT22;4532;50.886;4.700;2023-03-19T06:10:55;12.90;99.90
8994;DHT22;4532;50.886;4.700;2023-03-19T06:13:27;12.90;99.90
8994;DHT22;4532;50.886;4.700;2023-03-19T06:15:54;12.90;99.90
8994;DHT22;4532;50.886;4.700;2023-03-19T06:18:22;12.90;99.90
8994;DHT22;4532;50.886;4.700;2023-03-19T06:20:49;12.90;99.90
8994;DHT22;4532;50.886;4.700;2023-03-19T06:23:19;12.80;99.90
8994;DHT22;4532;50.886;4.700;2023-03-19T06:25:46;12.90;99.90
8994;DHT22;4532;50.886;4.700;2023-03-19T06:28:16;12.90;99.90
8994;DHT22;4532;50.886;4.700;2023-03-19T06:30:43;12.90;99.90
8994;DHT22;4532;50.886;4.700;2023-03-19T06:33:12;12.90;99.90
8994;DHT22;4532;50.886;4.700;2023-03-19T06:35:44;12.90;99.90
8994;DHT22;4532;50.886;4.700;2023-03-19T06:38:13;12.90;99.90
8994;DHT22;4532;50.886;4.700;2023-03-19T06:40:40;12.90;99.90
8994;DHT22;4532;50.886;4.700;2023-03-19T06:43:12;13.00;99.90
8994;DHT22;4532;50.886;4.700;2023-03-19T06:45:44;13.00;99.90
8994;DHT22;4532;50.886;4.700;2023-03-19T06:48:15;13.00;99.90
8994;DHT22;4532;50.886;4.700;2023-03-19T06:50:45;13.00;99.90
8994;DHT22;4532;50.886;4.700;2023-03-19T06:53:18;13.10;99.90
8994;DHT22;4532;50.886;4.700;2023-03-19T06:55:51;13.10;99.90
8994;DHT22;4532;50.886;4.700;2023-03-19T06:58:21;13.10;99.90
8994;DHT22;4532;50.886;4.700;2023-03-19T07:00:48;13.10;99.90
8994;DHT22;4532;50.886;4.700;2023-03-19T07:03:16;13.10;99.90
8994;DHT22;4532;50.886;4.700;2023-03-19T07:05:44;13.10;99.90
8994;DHT22;4532;50.886;4.700;2023-03-19T07:08:13;13.10;99.90
8994;DHT22;4532;50.886;4.700;2023-03-19T07:10:41;13.10;99.90
8994;DHT22;4532;50.886;4.700;2023-03-19T07:13:10;13.10;99.90
8994;DHT22;4532;50.886;4.700;2023-03-19T07:15:37;13.10;99.90
8994;DHT22;4532;50.886;4.700;2023-03-19T07:18:05;13.10;99.90
8994;DHT22;4532;50.886;4.700;2023-03-19T07:20:34;13.10;99.90
8994;DHT22;4532;50.886;4.700;2023-03-19T07:23:06;13.10;99.90
8994;DHT22;4532;50.886;4.700;2023-03-19T07:25:37;13.10;99.90
8994;DHT22;4532;50.886;4.700;2023-03-19T07:28:05;13.20;99.90
8994;DHT22;4532;50.886;4.700;2023-03-19T07:30:32;13.20;99.90
8994;DHT22;4532;50.886;4.700;2023-03-19T07:33:01;13.20;99.90
8994;DHT22;4532;50.886;4.700;2023-03-19T07:35:32;13.20;99.90
8994;DHT22;4532;50.886;4.700;2023-03-19T07:37:59;13.20;99.90
8994;DHT22;4532;50.886;4.700;2023-03-19T07:40:28;13.20;99.90
8994;DHT22;4532;50.886;4.700;2023-03-19T07:42:55;13.20;99.90
8994;DHT22;4532;50.886;4.700;2023-03-19T07:45:22;13.20;99.90
8994;DHT22;4532;50.886;4.700;2023-03-19T07:47:52;13.20;99.90
8994;DHT22;4532;50.886;4.700;2023-03-19T07:50:20;13.20;99.90
8994;DHT22;4532;50.886;4.700;2023-03-19T07:52:50;13.20;99.90
8994;DHT22;4532;50.886;4.700;2023-03-19T07:55:19;13.20;99.90
8994;DHT22;4532;50.886;4.700;2023-03-19T07:57:49;13.20;99.90
8994;DHT22;4532;50.886;4.700;2023-03-19T08:00:16;13.20;99.90
8994;DHT22;4532;50.886;4.700;2023-03-19T08:02:44;13.30;99.90
8994;DHT22;4532;50.886;4.700;2023-03-19T08:05:12;13.20;99.90
8994;DHT22;4532;50.886;4.700;2023-03-19T08:07:42;13.20;99.90
8994;DHT22;4532;50.886;4.700;2023-03-19T08:10:11;13.30;99.90
8994;DHT22;4532;50.886;4.700;2023-03-19T08:12:40;13.40;99.90
8994;DHT22;4532;50.886;4.700;2023-03-19T08:15:11;13.40;99.90
8994;DHT22;4532;50.886;4.700;2023-03-19T08:17:41;13.30;99.90
8994;DHT22;4532;50.886;4.700;2023-03-19T08:20:11;13.40;99.90
8994;DHT22;4532;50.886;4.700;2023-03-19T08:22:42;13.40;99.90
8994;DHT22;4532;50.886;4.700;2023-03-19T08:25:11;13.40;99.90
8994;DHT22;4532;50.886;4.700;2023-03-19T08:27:41;13.50;99.90
8994;DHT22;4532;50.886;4.700;2023-03-19T08:30:12;13.50;99.90
8994;DHT22;4532;50.886;4.700;2023-03-19T08:32:42;13.50;99.90
8994;DHT22;4532;50.886;4.700;2023-03-19T08:35:17;13.50;99.90
8994;DHT22;4532;50.886;4.700;2023-03-19T08:37:49;13.50;99.90
8994;DHT22;4532;50.886;4.700;2023-03-19T08:40:19;13.60;99.90
8994;DHT22;4532;50.886;4.700;2023-03-19T08:42:53;13.60;99.90
8994;DHT22;4532;50.886;4.700;2023-03-19T08:45:21;13.60;99.90
8994;DHT22;4532;50.886;4.700;2023-03-19T08:47:51;13.60;99.90
8994;DHT22;4532;50.886;4.700;2023-03-19T08:50:20;13.70;99.90
8994;DHT22;4532;50.886;4.700;2023-03-19T08:52:47;13.70;99.90
8994;DHT22;4532;50.886;4.700;2023-03-19T08:55:15;13.70;99.90
8994;DHT22;4532;50.886;4.700;2023-03-19T08:57:45;13.70;99.90
8994;DHT22;4532;50.886;4.700;2023-03-19T09:00:15;13.70;99.90
8994;DHT22;4532;50.886;4.700;2023-03-19T09:02:42;13.70;99.90
8994;DHT22;4532;50.886;4.700;2023-03-19T09:05:15;13.80;99.90
8994;DHT22;4532;50.886;4.700;2023-03-19T09:07:42;13.80;99.90
8994;DHT22;4532;50.886;4.700;2023-03-19T09:10:09;13.90;99.90
8994;DHT22;4532;50.886;4.700;2023-03-19T09:12:37;13.90;99.90
8994;DHT22;4532;50.886;4.700;2023-03-19T09:15:06;13.90;99.90
8994;DHT22;4532;50.886;4.700;2023-03-19T09:17:36;13.90;99.90
8994;DHT22;4532;50.886;4.700;2023-03-19T09:20:07;14.00;99.90
8994;DHT22;4532;50.886;4.700;2023-03-19T09:22:34;14.00;99.90
8994;DHT22;4532;50.886;4.700;2023-03-19T09:25:08;14.00;99.90
8994;DHT22;4532;50.886;4.700;2023-03-19T09:27:35;14.10;99.90
8994;DHT22;4532;50.886;4.700;2023-03-19T09:30:05;14.10;99.90
8994;DHT22;4532;50.886;4.700;2023-03-19T09:32:36;14.20;99.90
8994;DHT22;4532;50.886;4.700;2023-03-19T09:35:03;14.30;99.90
8994;DHT22;4532;50.886;4.700;2023-03-19T09:37:33;14.40;99.90
8994;DHT22;4532;50.886;4.700;2023-03-19T09:40:00;14.50;99.90
8994;DHT22;4532;50.886;4.700;2023-03-19T09:45:17;14.70;99.90
8994;DHT22;4532;50.886;4.700;2023-03-19T09:47:48;14.80;99.90
8994;DHT22;4532;50.886;4.700;2023-03-19T09:50:22;14.80;99.90
8994;DHT22;4532;50.886;4.700;2023-03-19T09:53:03;15.00;99.90
8994;DHT22;4532;50.886;4.700;2023-03-19T09:55:50;15.10;99.90
8994;DHT22;4532;50.886;4.700;2023-03-19T09:58:32;15.20;99.90
8994;DHT22;4532;50.886;4.700;2023-03-19T10:01:03;15.30;99.90
8994;DHT22;4532;50.886;4.700;2023-03-19T10:16:51;15.70;99.90
8994;DHT22;4532;50.886;4.700;2023-03-19T10:19:35;15.80;99.90
8994;DHT22;4532;50.886;4.700;2023-03-19T10:22:12;15.80;99.90
8994;DHT22;4532;50.886;4.700;2023-03-19T10:24:43;15.80;99.90
8994;DHT22;4532;50.886;4.700;2023-03-19T10:27:14;15.80;99.90
8994;DHT22;4532;50.886;4.700;2023-03-19T10:29:42;15.80;99.90
8994;DHT22;4532;50.886;4.700;2023-03-19T10:35:17;15.80;99.90
8994;DHT22;4532;50.886;4.700;2023-03-19T10:37:44;15.70;99.90
8994;DHT22;4532;50.886;4.700;2023-03-19T10:40:33;15.70;99.90
8994;DHT22;4532;50.886;4.700;2023-03-19T10:43:14;15.70;99.90
8994;DHT22;4532;50.886;4.700;2023-03-19T10:45:47;15.70;99.90
8994;DHT22;4532;50.886;4.700;2023-03-19T10:48:18;15.70;99.90
8994;DHT22;4532;50.886;4.700;2023-03-19T10:50:52;15.80;99.90
8994;DHT22;4532;50.886;4.700;2023-03-19T10:53:29;15.80;99.90
8994;DHT22;4532;50.886;4.700;2023-03-19T10:56:06;15.80;99.90
8994;DHT22;4532;50.886;4.700;2023-03-19T10:58:35;15.80;99.90
8994;DHT22;4532;50.886;4.700;2023-03-19T11:01:07;15.80;99.90
8994;DHT22;4532;50.886;4.700;2023-03-19T11:03:51;15.80;99.90
8994;DHT22;4532;50.886;4.700;2023-03-19T11:06:26;15.80;99.90
8994;DHT22;4532;50.886;4.700;2023-03-19T11:11:49;15.90;99.90
8994;DHT22;4532;50.886;4.700;2023-03-19T11:14:33;15.90;99.90
8994;DHT22;4532;50.886;4.700;2023-03-19T11:19:48;16.00;99.90
8994;DHT22;4532;50.886;4.700;2023-03-19T11:22:25;16.00;99.90
8994;DHT22;4532;50.886;4.700;2023-03-19T11:24:59;16.00;99.90
8994;DHT22;4532;50.886;4.700;2023-03-19T11:27:33;16.10;99.90
8994;DHT22;4532;50.886;4.700;2023-03-19T11:30:12;16.10;99.90
8994;DHT22;4532;50.886;4.700;2023-03-19T11:35:22;16.10;99.90
8994;DHT22;4532;50.886;4.700;2023-03-19T11:37:57;16.20;99.90
8994;DHT22;4532;50.886;4.700;2023-03-19T11:40:51;16.20;99.90
8994;DHT22;4532;50.886;4.700;2023-03-19T11:43:40;16.20;99.90
8994;DHT22;4532;50.886;4.700;2023-03-19T11:51:49;16.20;99.90
8994;DHT22;4532;50.886;4.700;2023-03-19T11:54:43;16.20;99.90
8994;DHT22;4532;50.886;4.700;2023-03-19T12:03:10;16.20;99.90
8994;DHT22;4532;50.886;4.700;2023-03-19T12:05:51;16.20;99.90
8994;DHT22;4532;50.886;4.700;2023-03-19T12:11:45;16.20;99.90
8994;DHT22;4532;50.886;4.700;2023-03-19T12:17:05;16.20;99.90
8994;DHT22;4532;50.886;4.700;2023-03-19T12:23:05;16.20;99.90
8994;DHT22;4532;50.886;4.700;2023-03-19T12:25:50;16.20;99.90
8994;DHT22;4532;50.886;4.700;2023-03-19T12:28:31;16.20;99.90
8994;DHT22;4532;50.886;4.700;2023-03-19T12:36:43;16.30;99.90
8994;DHT22;4532;50.886;4.700;2023-03-19T12:39:17;16.30;99.90
8994;DHT22;4532;50.886;4.700;2023-03-19T12:41:48;16.30;99.90
8994;DHT22;4532;50.886;4.700;2023-03-19T12:44:38;16.30;99.90
8994;DHT22;4532;50.886;4.700;2023-03-19T12:47:28;16.40;99.90
8994;DHT22;4532;50.886;4.700;2023-03-19T12:50:13;16.40;99.90
8994;DHT22;4532;50.886;4.700;2023-03-19T12:52:43;16.40;99.90
8994;DHT22;4532;50.886;4.700;2023-03-19T12:55:43;16.40;99.90
8994;DHT22;4532;50.886;4.700;2023-03-19T12:58:32;16.50;99.90
8994;DHT22;4532;50.886;4.700;2023-03-19T13:01:10;16.50;99.90
8994;DHT22;4532;50.886;4.700;2023-03-19T13:06:27;16.50;99.90
8994;DHT22;4532;50.886;4.700;2023-03-19T13:12:03;16.50;99.90
8994;DHT22;4532;50.886;4.700;2023-03-19T13:17:53;16.40;99.90
8994;DHT22;4532;50.886;4.700;2023-03-19T13:22:58;16.40;99.90
8994;DHT22;4532;50.886;4.700;2023-03-19T13:25:34;16.30;99.90
8994;DHT22;4532;50.886;4.700;2023-03-19T13:28:09;16.30;99.90
8994;DHT22;4532;50.886;4.700;2023-03-19T13:30:37;16.20;99.90
8994;DHT22;4532;50.886;4.700;2023-03-19T13:33:20;16.20;99.90
8994;DHT22;4532;50.886;4.700;2023-03-19T13:35:49;16.20;99.90
8994;DHT22;4532;50.886;4.700;2023-03-19T13:43:38;16.20;99.90
8994;DHT22;4532;50.886;4.700;2023-03-19T13:48:50;16.10;99.90
8994;DHT22;4532;50.886;4.700;2023-03-19T13:54:06;16.00;99.90
8994;DHT22;4532;50.886;4.700;2023-03-19T13:59:41;16.00;99.90
8994;DHT22;4532;50.886;4.700;2023-03-19T14:05:14;16.00;99.90
8994;DHT22;4532;50.886;4.700;2023-03-19T14:07:38;16.00;99.90
8994;DHT22;4532;50.886;4.700;2023-03-19T14:10:27;16.00;99.90
8994;DHT22;4532;50.886;4.700;2023-03-19T14:13:08;16.00;99.90
8994;DHT22;4532;50.886;4.700;2023-03-19T14:15:50;16.00;99.90
8994;DHT22;4532;50.886;4.700;2023-03-19T14:18:20;16.00;99.90
8994;DHT22;4532;50.886;4.700;2023-03-19T14:21:04;16.00;99.90
8994;DHT22;4532;50.886;4.700;2023-03-19T14:23:52;16.00;99.90
8994;DHT22;4532;50.886;4.700;2023-03-19T14:26:26;16.00;99.90
8994;DHT22;4532;50.886;4.700;2023-03-19T14:28:59;16.00;99.90
8994;DHT22;4532;50.886;4.700;2023-03-19T14:31:43;16.00;99.90
8994;DHT22;4532;50.886;4.700;2023-03-19T14:36:56;16.00;99.90
8994;DHT22;4532;50.886;4.700;2023-03-19T14:39:31;15.90;99.90
8994;DHT22;4532;50.886;4.700;2023-03-19T14:45:13;15.80;99.90
8994;DHT22;4532;50.886;4.700;2023-03-19T14:53:53;15.70;99.90
8994;DHT22;4532;50.886;4.700;2023-03-19T14:56:30;15.70;99.90
8994;DHT22;4532;50.886;4.700;2023-03-19T14:59:02;15.70;99.90
8994;DHT22;4532;50.886;4.700;2023-03-19T15:01:38;15.60;99.90
8994;DHT22;4532;50.886;4.700;2023-03-19T15:04:09;15.60;99.90
8994;DHT22;4532;50.886;4.700;2023-03-19T15:06:43;15.60;99.90
8994;DHT22;4532;50.886;4.700;2023-03-19T15:09:20;15.60;99.90
8994;DHT22;4532;50.886;4.700;2023-03-19T15:15:19;15.60;99.90
8994;DHT22;4532;50.886;4.700;2023-03-19T15:18:00;15.60;99.90
8994;DHT22;4532;50.886;4.700;2023-03-19T15:20:52;15.60;99.90
8994;DHT22;4532;50.886;4.700;2023-03-19T15:23:25;15.60;99.90
8994;DHT22;4532;50.886;4.700;2023-03-19T15:26:02;15.70;99.90
8994;DHT22;4532;50.886;4.700;2023-03-19T15:28:44;15.70;99.90
8994;DHT22;4532;50.886;4.700;2023-03-19T15:31:12;15.80;99.90
8994;DHT22;4532;50.886;4.700;2023-03-19T15:34:03;15.80;99.90
8994;DHT22;4532;50.886;4.700;2023-03-19T15:36:45;15.70;99.90
8994;DHT22;4532;50.886;4.700;2023-03-19T15:39:15;15.70;99.90
8994;DHT22;4532;50.886;4.700;2023-03-19T15:41:46;15.70;99.90
8994;DHT22;4532;50.886;4.700;2023-03-19T15:44:43;15.60;99.90
8994;DHT22;4532;50.886;4.700;2023-03-19T15:47:20;15.60;99.90
8994;DHT22;4532;50.886;4.700;2023-03-19T15:50:14;15.60;99.90
8994;DHT22;4532;50.886;4.700;2023-03-19T15:52:59;15.50;99.90
8994;DHT22;4532;50.886;4.700;2023-03-19T15:55:27;15.50;99.90
8994;DHT22;4532;50.886;4.700;2023-03-19T15:58:01;15.40;99.90
8994;DHT22;4532;50.886;4.700;2023-03-19T16:00:31;15.40;99.90
8994;DHT22;4532;50.886;4.700;2023-03-19T16:03:06;15.30;99.90
8994;DHT22;4532;50.886;4.700;2023-03-19T16:05:40;15.20;99.90
8994;DHT22;4532;50.886;4.700;2023-03-19T16:08:22;15.20;99.90
8994;DHT22;4532;50.886;4.700;2023-03-19T16:10:50;15.10;99.90
8994;DHT22;4532;50.886;4.700;2023-03-19T16:16:04;15.00;99.90
8994;DHT22;4532;50.886;4.700;2023-03-19T16:18:46;15.00;99.90
8994;DHT22;4532;50.886;4.700;2023-03-19T16:24:03;14.90;99.90
8994;DHT22;4532;50.886;4.700;2023-03-19T16:31:42;14.80;99.90
8994;DHT22;4532;50.886;4.700;2023-03-19T16:34:23;14.80;99.90
8994;DHT22;4532;50.886;4.700;2023-03-19T16:36:52;14.80;99.90
8994;DHT22;4532;50.886;4.700;2023-03-19T16:44:38;14.70;99.90
8994;DHT22;4532;50.886;4.700;2023-03-19T16:47:11;14.70;99.90
8994;DHT22;4532;50.886;4.700;2023-03-19T16:49:38;14.60;99.90
8994;DHT22;4532;50.886;4.700;2023-03-19T16:52:15;14.50;99.90
8994;DHT22;4532;50.886;4.700;2023-03-19T16:54:46;14.50;99.90
8994;DHT22;4532;50.886;4.700;2023-03-19T16:57:15;14.40;99.90
8994;DHT22;4532;50.886;4.700;2023-03-19T16:59:45;14.40;99.90
8994;DHT22;4532;50.886;4.700;2023-03-19T17:02:15;14.30;99.90
8994;DHT22;4532;50.886;4.700;2023-03-19T17:04:45;14.20;99.90
8994;DHT22;4532;50.886;4.700;2023-03-19T17:07:13;14.20;99.90
8994;DHT22;4532;50.886;4.700;2023-03-19T17:09:40;14.10;99.90
8994;DHT22;4532;50.886;4.700;2023-03-19T17:12:13;14.10;99.90
8994;DHT22;4532;50.886;4.700;2023-03-19T17:14:42;14.00;99.90
8994;DHT22;4532;50.886;4.700;2023-03-19T17:17:18;13.90;99.90
8994;DHT22;4532;50.886;4.700;2023-03-19T17:19:46;13.90;99.90
8994;DHT22;4532;50.886;4.700;2023-03-19T17:22:17;13.80;99.90
8994;DHT22;4532;50.886;4.700;2023-03-19T17:24:45;13.80;99.90
8994;DHT22;4532;50.886;4.700;2023-03-19T17:27:12;13.80;99.90
8994;DHT22;4532;50.886;4.700;2023-03-19T17:29:43;13.70;99.90
8994;DHT22;4532;50.886;4.700;2023-03-19T17:32:17;13.70;99.90
8994;DHT22;4532;50.886;4.700;2023-03-19T17:34:45;13.60;99.90
8994;DHT22;4532;50.886;4.700;2023-03-19T17:37:17;13.60;99.90
8994;DHT22;4532;50.886;4.700;2023-03-19T17:39:46;13.60;99.90
8994;DHT22;4532;50.886;4.700;2023-03-19T17:42:21;13.50;99.90
8994;DHT22;4532;50.886;4.700;2023-03-19T17:44:51;13.50;99.90
8994;DHT22;4532;50.886;4.700;2023-03-19T17:47:21;13.40;99.90
8994;DHT22;4532;50.886;4.700;2023-03-19T17:49:48;13.40;99.90
8994;DHT22;4532;50.886;4.700;2023-03-19T17:52:17;13.40;99.90
8994;DHT22;4532;50.886;4.700;2023-03-19T17:54:44;13.40;99.90
8994;DHT22;4532;50.886;4.700;2023-03-19T17:57:14;13.30;99.90
8994;DHT22;4532;50.886;4.700;2023-03-19T17:59:41;13.20;99.90
8994;DHT22;4532;50.886;4.700;2023-03-19T18:02:35;13.20;99.90
8994;DHT22;4532;50.886;4.700;2023-03-19T18:05:03;13.20;99.90
8994;DHT22;4532;50.886;4.700;2023-03-19T18:07:30;13.10;99.90
8994;DHT22;4532;50.886;4.700;2023-03-19T18:10:00;13.10;99.90
8994;DHT22;4532;50.886;4.700;2023-03-19T18:12:27;13.10;99.90
8994;DHT22;4532;50.886;4.700;2023-03-19T18:14:57;13.00;99.90
8994;DHT22;4532;50.886;4.700;2023-03-19T18:17:24;13.00;99.90
8994;DHT22;4532;50.886;4.700;2023-03-19T18:19:56;13.00;99.90
8994;DHT22;4532;50.886;4.700;2023-03-19T18:22:26;12.90;99.90
8994;DHT22;4532;50.886;4.700;2023-03-19T18:24:55;12.90;99.90
8994;DHT22;4532;50.886;4.700;2023-03-19T18:27:25;12.90;99.90
8994;DHT22;4532;50.886;4.700;2023-03-19T18:29:54;12.80;99.90
8994;DHT22;4532;50.886;4.700;2023-03-19T18:32:30;12.80;99.90